sensor_id;sensor_type;location;lat;lon;timestamp;temperature;humidity
68609;SHT31;55581;46.718;7.690;2023-04-25T00:01:35;9.61;61.41
68609;SHT31;55581;46.718;7.690;2023-04-25T00:04:03;9.69;61.06
68609;SHT31;55581;46.718;7.690;2023-04-25T00:06:31;9.75;59.51
68609;SHT31;55581;46.718;7.690;2023-04-25T00:08:57;9.75;64.03
68609;SHT31;55581;46.718;7.690;2023-04-25T00:11:23;9.81;62.28
68609;SHT31;55581;46.718;7.690;2023-04-25T00:13:50;9.74;64.46
68609;SHT31;55581;46.718;7.690;2023-04-25T00:16:16;9.74;66.78
68609;SHT31;55581;46.718;7.690;2023-04-25T00:18:44;9.71;67.50
68609;SHT31;55581;46.718;7.690;2023-04-25T00:21:18;9.69;68.01
68609;SHT31;55581;46.718;7.690;2023-04-25T00:23:45;9.70;66.02
68609;SHT31;55581;46.718;7.690;2023-04-25T00:26:11;9.65;66.17
68609;SHT31;55581;46.718;7.690;2023-04-25T00:28:37;9.70;65.87
68609;SHT31;55581;46.718;7.690;2023-04-25T00:31:03;9.63;64.55
68609;SHT31;55581;46.718;7.690;2023-04-25T00:33:28;9.64;65.37
68609;SHT31;55581;46.718;7.690;2023-04-25T00:35:54;9.58;65.94
68609;SHT31;55581;46.718;7.690;2023-04-25T00:38:20;9.60;66.38
68609;SHT31;55581;46.718;7.690;2023-04-25T00:40:45;9.54;67.12
68609;SHT31;55581;46.718;7.690;2023-04-25T00:43:11;9.57;69.73
68609;SHT31;55581;46.718;7.690;2023-04-25T00:45:38;9.54;69.93
68609;SHT31;55581;46.718;7.690;2023-04-25T00:48:04;9.51;70.05
68609;SHT31;55581;46.718;7.690;2023-04-25T00:50:30;9.50;71.25
68609;SHT31;55581;46.718;7.690;2023-04-25T00:52:55;9.48;70.05
68609;SHT31;55581;46.718;7.690;2023-04-25T00:55:23;9.46;71.40
68609;SHT31;55581;46.718;7.690;2023-04-25T00:57:49;9.35;71.83
68609;SHT31;55581;46.718;7.690;2023-04-25T01:00:15;9.32;73.29
68609;SHT31;55581;46.718;7.690;2023-04-25T01:02:44;9.27;70.61
68609;SHT31;55581;46.718;7.690;2023-04-25T01:05:10;9.20;70.34
68609;SHT31;55581;46.718;7.690;2023-04-25T01:07:36;9.19;70.18
68609;SHT31;55581;46.718;7.690;2023-04-25T01:10:01;9.16;71.73
68609;SHT31;55581;46.718;7.690;2023-04-25T01:12:27;9.14;70.10
68609;SHT31;55581;46.718;7.690;2023-04-25T01:14:53;9.05;72.42
68609;SHT31;55581;46.718;7.690;2023-04-25T01:17:19;8.91;71.94
68609;SHT31;55581;46.718;7.690;2023-04-25T01:19:47;8.89;70.12
68609;SHT31;55581;46.718;7.690;2023-04-25T01:22:14;8.80;69.67
68609;SHT31;55581;46.718;7.690;2023-04-25T01:24:40;8.80;69.38
68609;SHT31;55581;46.718;7.690;2023-04-25T01:27:06;8.80;70.25
68609;SHT31;55581;46.718;7.690;2023-04-25T01:29:34;8.77;71.80
68609;SHT31;55581;46.718;7.690;2023-04-25T01:32:00;8.75;71.65
68609;SHT31;55581;46.718;7.690;2023-04-25T01:34:28;8.81;71.70
68609;SHT31;55581;46.718;7.690;2023-04-25T01:36:55;8.82;70.57
68609;SHT31;55581;46.718;7.690;2023-04-25T01:39:21;8.85;69.85
68609;SHT31;55581;46.718;7.690;2023-04-25T01:41:47;8.82;70.50
68609;SHT31;55581;46.718;7.690;2023-04-25T01:44:15;8.82;70.64
68609;SHT31;55581;46.718;7.690;2023-04-25T01:46:41;8.82;71.32
68609;SHT31;55581;46.718;7.690;2023-04-25T01:49:06;8.85;71.75
68609;SHT31;55581;46.718;7.690;2023-04-25T01:51:32;8.82;71.36
68609;SHT31;55581;46.718;7.690;2023-04-25T01:53:58;8.78;72.12
68609;SHT31;55581;46.718;7.690;2023-04-25T01:56:30;8.78;71.36
68609;SHT31;55581;46.718;7.690;2023-04-25T01:58:55;8.84;72.02
68609;SHT31;55581;46.718;7.690;2023-04-25T02:01:20;8.88;72.24
68609;SHT31;55581;46.718;7.690;2023-04-25T02:03:46;8.92;72.95
68609;SHT31;55581;46.718;7.690;2023-04-25T02:06:11;8.91;73.31
68609;SHT31;55581;46.718;7.690;2023-04-25T02:08:37;8.91;72.59
68609;SHT31;55581;46.718;7.690;2023-04-25T02:11:04;8.92;72.62
68609;SHT31;55581;46.718;7.690;2023-04-25T02:13:30;8.93;72.76
68609;SHT31;55581;46.718;7.690;2023-04-25T02:15:55;8.91;73.11
68609;SHT31;55581;46.718;7.690;2023-04-25T02:18:25;8.89;73.74
68609;SHT31;55581;46.718;7.690;2023-04-25T02:20:53;8.91;72.99
68609;SHT31;55581;46.718;7.690;2023-04-25T02:23:21;8.98;72.72
68609;SHT31;55581;46.718;7.690;2023-04-25T02:25:49;8.88;73.12
68609;SHT31;55581;46.718;7.690;2023-04-25T02:28:14;8.75;70.62
68609;SHT31;55581;46.718;7.690;2023-04-25T02:30:40;8.52;71.76
68609;SHT31;55581;46.718;7.690;2023-04-25T02:33:05;8.28;73.19
68609;SHT31;55581;46.718;7.690;2023-04-25T02:35:30;8.02;75.27
68609;SHT31;55581;46.718;7.690;2023-04-25T02:37:58;7.85;76.47
68609;SHT31;55581;46.718;7.690;2023-04-25T02:40:24;7.63;74.42
68609;SHT31;55581;46.718;7.690;2023-04-25T02:42:49;7.44;76.67
68609;SHT31;55581;46.718;7.690;2023-04-25T02:45:15;7.29;77.34
68609;SHT31;55581;46.718;7.690;2023-04-25T02:47:40;7.16;78.63
68609;SHT31;55581;46.718;7.690;2023-04-25T02:50:06;6.98;76.69
68609;SHT31;55581;46.718;7.690;2023-04-25T02:52:31;6.92;77.86
68609;SHT31;55581;46.718;7.690;2023-04-25T02:54:57;6.87;77.33
68609;SHT31;55581;46.718;7.690;2023-04-25T02:57:22;6.81;77.48
68609;SHT31;55581;46.718;7.690;2023-04-25T02:59:48;6.80;77.90
68609;SHT31;55581;46.718;7.690;2023-04-25T03:02:13;6.75;76.38
68609;SHT31;55581;46.718;7.690;2023-04-25T03:04:39;6.78;75.96
68609;SHT31;55581;46.718;7.690;2023-04-25T03:07:04;6.74;76.40
68609;SHT31;55581;46.718;7.690;2023-04-25T03:09:30;6.81;78.09
68609;SHT31;55581;46.718;7.690;2023-04-25T03:11:55;6.85;78.31
68609;SHT31;55581;46.718;7.690;2023-04-25T03:14:21;6.85;77.48
68609;SHT31;55581;46.718;7.690;2023-04-25T03:16:46;6.92;76.29
68609;SHT31;55581;46.718;7.690;2023-04-25T03:19:11;7.02;75.48
68609;SHT31;55581;46.718;7.690;2023-04-25T03:21:37;7.08;75.35
68609;SHT31;55581;46.718;7.690;2023-04-25T03:24:04;7.05;76.26
68609;SHT31;55581;46.718;7.690;2023-04-25T03:26:29;7.13;75.18
68609;SHT31;55581;46.718;7.690;2023-04-25T03:28:55;7.22;77.37
68609;SHT31;55581;46.718;7.690;2023-04-25T03:31:20;7.30;74.84
68609;SHT31;55581;46.718;7.690;2023-04-25T03:33:46;7.29;76.65
68609;SHT31;55581;46.718;7.690;2023-04-25T03:36:11;7.30;75.41
68609;SHT31;55581;46.718;7.690;2023-04-25T03:38:37;7.34;75.52
68609;SHT31;55581;46.718;7.690;2023-04-25T03:41:06;7.32;76.42
68609;SHT31;55581;46.718;7.690;2023-04-25T03:43:31;7.34;78.62
68609;SHT31;55581;46.718;7.690;2023-04-25T03:45:57;7.29;78.57
68609;SHT31;55581;46.718;7.690;2023-04-25T03:48:22;7.22;79.52
68609;SHT31;55581;46.718;7.690;2023-04-25T03:50:49;7.22;79.83
68609;SHT31;55581;46.718;7.690;2023-04-25T03:53:15;7.13;81.22
68609;SHT31;55581;46.718;7.690;2023-04-25T03:55:43;7.04;80.90
68609;SHT31;55581;46.718;7.690;2023-04-25T03:58:08;7.09;80.69
68609;SHT31;55581;46.718;7.690;2023-04-25T04:00:34;7.06;79.95
68609;SHT31;55581;46.718;7.690;2023-04-25T04:03:03;6.89;79.24
68609;SHT31;55581;46.718;7.690;2023-04-25T04:05:28;6.96;81.16
68609;SHT31;55581;46.718;7.690;2023-04-25T04:07:56;7.02;81.10
68609;SHT31;55581;46.718;7.690;2023-04-25T04:10:22;6.94;82.44
68609;SHT31;55581;46.718;7.690;2023-04-25T04:12:47;6.92;82.97
68609;SHT31;55581;46.718;7.690;2023-04-25T04:15:13;7.01;80.47
68609;SHT31;55581;46.718;7.690;2023-04-25T04:17:38;7.02;81.31
68609;SHT31;55581;46.718;7.690;2023-04-25T04:20:04;6.92;84.36
68609;SHT31;55581;46.718;7.690;2023-04-25T04:22:31;6.95;85.16
68609;SHT31;55581;46.718;7.690;2023-04-25T04:24:56;6.91;85.01
68609;SHT31;55581;46.718;7.690;2023-04-25T04:27:22;6.83;86.84
68609;SHT31;55581;46.718;7.690;2023-04-25T04:29:48;6.81;81.92
68609;SHT31;55581;46.718;7.690;2023-04-25T04:32:14;6.81;85.06
68609;SHT31;55581;46.718;7.690;2023-04-25T04:34:40;6.89;78.17
68609;SHT31;55581;46.718;7.690;2023-04-25T04:37:06;6.96;80.77
68609;SHT31;55581;46.718;7.690;2023-04-25T04:39:35;6.98;83.64
68609;SHT31;55581;46.718;7.690;2023-04-25T04:42:02;6.95;84.64
68609;SHT31;55581;46.718;7.690;2023-04-25T04:44:29;6.94;83.46
68609;SHT31;55581;46.718;7.690;2023-04-25T04:46:58;6.94;82.75
68609;SHT31;55581;46.718;7.690;2023-04-25T04:49:23;7.01;82.00
68609;SHT31;55581;46.718;7.690;2023-04-25T04:51:49;7.02;80.98
68609;SHT31;55581;46.718;7.690;2023-04-25T04:54:14;6.96;81.15
68609;SHT31;55581;46.718;7.690;2023-04-25T04:56:40;6.95;82.11
68609;SHT31;55581;46.718;7.690;2023-04-25T04:59:06;6.96;80.43
68609;SHT31;55581;46.718;7.690;2023-04-25T05:01:32;7.01;80.28
68609;SHT31;55581;46.718;7.690;2023-04-25T05:03:57;7.06;80.14
68609;SHT31;55581;46.718;7.690;2023-04-25T05:06:27;7.12;80.33
68609;SHT31;55581;46.718;7.690;2023-04-25T05:08:54;7.13;79.49
68609;SHT31;55581;46.718;7.690;2023-04-25T05:11:23;7.19;80.47
68609;SHT31;55581;46.718;7.690;2023-04-25T05:13:49;7.24;80.69
68609;SHT31;55581;46.718;7.690;2023-04-25T05:16:15;7.26;81.06
68609;SHT31;55581;46.718;7.690;2023-04-25T05:18:40;7.32;80.83
68609;SHT31;55581;46.718;7.690;2023-04-25T05:21:06;7.33;79.93
68609;SHT31;55581;46.718;7.690;2023-04-25T05:23:33;7.30;82.49
68609;SHT31;55581;46.718;7.690;2023-04-25T05:26:02;7.29;81.23
68609;SHT31;55581;46.718;7.690;2023-04-25T05:28:28;7.32;81.60
68609;SHT31;55581;46.718;7.690;2023-04-25T05:30:53;7.33;80.57
68609;SHT31;55581;46.718;7.690;2023-04-25T05:33:19;7.29;81.78
68609;SHT31;55581;46.718;7.690;2023-04-25T05:35:44;7.26;81.10
68609;SHT31;55581;46.718;7.690;2023-04-25T05:38:10;7.24;82.83
68609;SHT31;55581;46.718;7.690;2023-04-25T05:40:35;7.15;83.77
68609;SHT31;55581;46.718;7.690;2023-04-25T05:43:01;7.13;85.61
68609;SHT31;55581;46.718;7.690;2023-04-25T05:45:26;7.08;86.75
68609;SHT31;55581;46.718;7.690;2023-04-25T05:47:52;7.11;85.92
68609;SHT31;55581;46.718;7.690;2023-04-25T05:50:20;7.12;86.07
68609;SHT31;55581;46.718;7.690;2023-04-25T05:52:45;7.12;85.98
68609;SHT31;55581;46.718;7.690;2023-04-25T05:55:12;7.15;83.39
68609;SHT31;55581;46.718;7.690;2023-04-25T05:57:38;7.06;82.92
68609;SHT31;55581;46.718;7.690;2023-04-25T06:00:09;7.02;83.56
68609;SHT31;55581;46.718;7.690;2023-04-25T06:02:35;7.02;83.50
68609;SHT31;55581;46.718;7.690;2023-04-25T06:05:00;7.06;82.76
68609;SHT31;55581;46.718;7.690;2023-04-25T06:07:29;7.06;82.83
68609;SHT31;55581;46.718;7.690;2023-04-25T06:09:57;7.09;83.39
68609;SHT31;55581;46.718;7.690;2023-04-25T06:12:23;7.06;85.56
68609;SHT31;55581;46.718;7.690;2023-04-25T06:14:48;6.91;84.75
68609;SHT31;55581;46.718;7.690;2023-04-25T06:17:16;6.96;83.25
68609;SHT31;55581;46.718;7.690;2023-04-25T06:19:44;6.95;84.60
68609;SHT31;55581;46.718;7.690;2023-04-25T06:22:15;6.88;82.68
68609;SHT31;55581;46.718;7.690;2023-04-25T06:24:43;6.88;81.26
68609;SHT31;55581;46.718;7.690;2023-04-25T06:27:08;6.91;81.25
68609;SHT31;55581;46.718;7.690;2023-04-25T06:29:33;6.92;80.79
68609;SHT31;55581;46.718;7.690;2023-04-25T06:31:59;6.85;85.67
68609;SHT31;55581;46.718;7.690;2023-04-25T06:34:24;6.87;85.41
68609;SHT31;55581;46.718;7.690;2023-04-25T06:36:52;6.85;87.41
68609;SHT31;55581;46.718;7.690;2023-04-25T06:39:17;6.94;87.03
68609;SHT31;55581;46.718;7.690;2023-04-25T06:41:44;7.06;86.12
68609;SHT31;55581;46.718;7.690;2023-04-25T06:44:09;7.08;86.24
68609;SHT31;55581;46.718;7.690;2023-04-25T06:46:35;7.09;85.39
68609;SHT31;55581;46.718;7.690;2023-04-25T06:49:01;7.13;87.07
68609;SHT31;55581;46.718;7.690;2023-04-25T06:51:26;7.15;85.51
68609;SHT31;55581;46.718;7.690;2023-04-25T06:53:54;7.12;85.40
68609;SHT31;55581;46.718;7.690;2023-04-25T06:56:19;7.18;84.84
68609;SHT31;55581;46.718;7.690;2023-04-25T06:58:49;7.15;84.93
68609;SHT31;55581;46.718;7.690;2023-04-25T07:01:14;7.20;83.24
68609;SHT31;55581;46.718;7.690;2023-04-25T07:03:41;7.13;84.96
68609;SHT31;55581;46.718;7.690;2023-04-25T07:06:06;7.16;85.75
68609;SHT31;55581;46.718;7.690;2023-04-25T07:08:32;7.19;86.92
68609;SHT31;55581;46.718;7.690;2023-04-25T07:10:57;7.24;87.13
68609;SHT31;55581;46.718;7.690;2023-04-25T07:13:23;7.30;85.44
68609;SHT31;55581;46.718;7.690;2023-04-25T07:15:48;7.39;84.72
68609;SHT31;55581;46.718;7.690;2023-04-25T07:18:14;7.44;83.84
68609;SHT31;55581;46.718;7.690;2023-04-25T07:20:40;7.46;84.00
68609;SHT31;55581;46.718;7.690;2023-04-25T07:23:07;7.44;84.35
68609;SHT31;55581;46.718;7.690;2023-04-25T07:25:33;7.44;85.39
68609;SHT31;55581;46.718;7.690;2023-04-25T07:28:01;7.46;85.76
68609;SHT31;55581;46.718;7.690;2023-04-25T07:30:26;7.60;85.22
68609;SHT31;55581;46.718;7.690;2023-04-25T07:32:51;7.63;85.02
68609;SHT31;55581;46.718;7.690;2023-04-25T07:35:17;7.73;84.57
68609;SHT31;55581;46.718;7.690;2023-04-25T07:37:42;7.74;84.33
68609;SHT31;55581;46.718;7.690;2023-04-25T07:40:08;7.78;85.04
68609;SHT31;55581;46.718;7.690;2023-04-25T07:42:34;7.77;85.21
68609;SHT31;55581;46.718;7.690;2023-04-25T07:45:00;7.95;82.29
68609;SHT31;55581;46.718;7.690;2023-04-25T07:47:26;7.88;82.88
68609;SHT31;55581;46.718;7.690;2023-04-25T07:49:54;7.75;82.77
68609;SHT31;55581;46.718;7.690;2023-04-25T07:52:19;7.53;85.12
68609;SHT31;55581;46.718;7.690;2023-04-25T07:54:45;7.59;84.97
68609;SHT31;55581;46.718;7.690;2023-04-25T07:57:12;7.63;83.96
68609;SHT31;55581;46.718;7.690;2023-04-25T07:59:42;7.82;83.76
68609;SHT31;55581;46.718;7.690;2023-04-25T08:02:07;7.94;82.51
68609;SHT31;55581;46.718;7.690;2023-04-25T08:04:32;7.97;84.49
68609;SHT31;55581;46.718;7.690;2023-04-25T08:07:00;7.99;84.58
68609;SHT31;55581;46.718;7.690;2023-04-25T08:09:26;8.01;82.81
68609;SHT31;55581;46.718;7.690;2023-04-25T08:11:51;7.97;82.46
68609;SHT31;55581;46.718;7.690;2023-04-25T08:14:16;7.87;83.41
68609;SHT31;55581;46.718;7.690;2023-04-25T08:16:45;7.85;82.88
68609;SHT31;55581;46.718;7.690;2023-04-25T08:19:10;7.92;82.64
68609;SHT31;55581;46.718;7.690;2023-04-25T08:21:38;7.97;82.80
68609;SHT31;55581;46.718;7.690;2023-04-25T08:24:06;8.02;81.82
68609;SHT31;55581;46.718;7.690;2023-04-25T08:26:33;8.01;81.45
68609;SHT31;55581;46.718;7.690;2023-04-25T08:28:59;7.99;80.93
68609;SHT31;55581;46.718;7.690;2023-04-25T08:31:27;8.25;80.18
68609;SHT31;55581;46.718;7.690;2023-04-25T08:33:52;8.57;81.88
68609;SHT31;55581;46.718;7.690;2023-04-25T08:36:18;8.97;82.88
68609;SHT31;55581;46.718;7.690;2023-04-25T08:38:44;9.29;77.96
68609;SHT31;55581;46.718;7.690;2023-04-25T08:41:11;9.56;77.76
68609;SHT31;55581;46.718;7.690;2023-04-25T08:43:37;9.90;75.87
68609;SHT31;55581;46.718;7.690;2023-04-25T08:46:02;10.03;73.75
68609;SHT31;55581;46.718;7.690;2023-04-25T08:48:32;10.22;72.27
68609;SHT31;55581;46.718;7.690;2023-04-25T08:50:58;10.33;73.29
68609;SHT31;55581;46.718;7.690;2023-04-25T08:53:29;10.70;70.04
68609;SHT31;55581;46.718;7.690;2023-04-25T08:55:56;11.01;73.44
68609;SHT31;55581;46.718;7.690;2023-04-25T08:58:23;11.22;69.40
68609;SHT31;55581;46.718;7.690;2023-04-25T09:00:49;11.38;70.67
68609;SHT31;55581;46.718;7.690;2023-04-25T09:03:15;11.32;71.45
68609;SHT31;55581;46.718;7.690;2023-04-25T09:05:41;11.22;72.08
68609;SHT31;55581;46.718;7.690;2023-04-25T09:08:07;11.16;71.61
68609;SHT31;55581;46.718;7.690;2023-04-25T09:10:33;10.83;69.92
68609;SHT31;55581;46.718;7.690;2023-04-25T09:13:17;10.90;71.76
68609;SHT31;55581;46.718;7.690;2023-04-25T09:15:53;10.56;72.00
68609;SHT31;55581;46.718;7.690;2023-04-25T09:18:27;10.23;74.22
68609;SHT31;55581;46.718;7.690;2023-04-25T09:20:54;10.18;76.62
68609;SHT31;55581;46.718;7.690;2023-04-25T09:23:20;10.03;76.33
68609;SHT31;55581;46.718;7.690;2023-04-25T09:25:53;10.02;73.64
68609;SHT31;55581;46.718;7.690;2023-04-25T09:28:25;10.06;72.67
68609;SHT31;55581;46.718;7.690;2023-04-25T09:30:56;9.81;75.32
68609;SHT31;55581;46.718;7.690;2023-04-25T09:33:29;9.73;76.40
68609;SHT31;55581;46.718;7.690;2023-04-25T09:38:45;9.50;75.47
68609;SHT31;55581;46.718;7.690;2023-04-25T09:41:11;9.30;75.58
68609;SHT31;55581;46.718;7.690;2023-04-25T09:43:37;9.18;76.24
68609;SHT31;55581;46.718;7.690;2023-04-25T09:46:10;8.91;75.79
68609;SHT31;55581;46.718;7.690;2023-04-25T09:48:39;8.60;75.23
68609;SHT31;55581;46.718;7.690;2023-04-25T09:51:12;8.02;78.24
68609;SHT31;55581;46.718;7.690;2023-04-25T09:53:43;7.68;80.70
68609;SHT31;55581;46.718;7.690;2023-04-25T09:56:10;7.04;81.64
68609;SHT31;55581;46.718;7.690;2023-04-25T09:58:38;6.63;82.82
68609;SHT31;55581;46.718;7.690;2023-04-25T10:01:05;6.34;84.08
68609;SHT31;55581;46.718;7.690;2023-04-25T10:03:33;6.18;85.04
68609;SHT31;55581;46.718;7.690;2023-04-25T10:06:04;6.08;86.28
68609;SHT31;55581;46.718;7.690;2023-04-25T10:08:33;5.97;87.24
68609;SHT31;55581;46.718;7.690;2023-04-25T10:11:01;5.73;86.72
68609;SHT31;55581;46.718;7.690;2023-04-25T10:13:29;5.67;87.35
68609;SHT31;55581;46.718;7.690;2023-04-25T10:15:57;5.58;87.35
68609;SHT31;55581;46.718;7.690;2023-04-25T10:18:24;5.64;89.20
68609;SHT31;55581;46.718;7.690;2023-04-25T10:20:50;5.74;87.76
68609;SHT31;55581;46.718;7.690;2023-04-25T10:23:16;5.78;86.68
68609;SHT31;55581;46.718;7.690;2023-04-25T10:25:42;5.81;88.62
68609;SHT31;55581;46.718;7.690;2023-04-25T10:28:08;5.87;89.08
68609;SHT31;55581;46.718;7.690;2023-04-25T10:30:33;6.05;88.18
68609;SHT31;55581;46.718;7.690;2023-04-25T10:32:59;6.23;87.69
68609;SHT31;55581;46.718;7.690;2023-04-25T10:35:26;6.56;88.62
68609;SHT31;55581;46.718;7.690;2023-04-25T10:38:11;6.78;84.45
68609;SHT31;55581;46.718;7.690;2023-04-25T10:40:37;6.96;86.30
68609;SHT31;55581;46.718;7.690;2023-04-25T10:45:59;7.27;82.43
68609;SHT31;55581;46.718;7.690;2023-04-25T10:48:34;7.49;84.19
68609;SHT31;55581;46.718;7.690;2023-04-25T10:51:16;7.73;87.87
68609;SHT31;55581;46.718;7.690;2023-04-25T10:54:02;8.10;85.50
68609;SHT31;55581;46.718;7.690;2023-04-25T10:56:32;8.33;78.02
68609;SHT31;55581;46.718;7.690;2023-04-25T10:59:24;8.61;80.37
68609;SHT31;55581;46.718;7.690;2023-04-25T11:01:53;8.91;81.88
68609;SHT31;55581;46.718;7.690;2023-04-25T11:09:26;9.43;80.90
68609;SHT31;55581;46.718;7.690;2023-04-25T11:11:58;9.54;76.91
68609;SHT31;55581;46.718;7.690;2023-04-25T11:14:25;9.54;75.64
68609;SHT31;55581;46.718;7.690;2023-04-25T11:16:54;9.69;76.82
68609;SHT31;55581;46.718;7.690;2023-04-25T11:19:23;9.75;76.30
68609;SHT31;55581;46.718;7.690;2023-04-25T11:21:49;9.90;77.48
68609;SHT31;55581;46.718;7.690;2023-04-25T11:24:16;9.84;76.90
68609;SHT31;55581;46.718;7.690;2023-04-25T11:26:42;9.94;77.26
68609;SHT31;55581;46.718;7.690;2023-04-25T11:29:08;10.11;77.46
68609;SHT31;55581;46.718;7.690;2023-04-25T11:31:33;10.01;77.08
68609;SHT31;55581;46.718;7.690;2023-04-25T11:34:01;10.06;75.05
68609;SHT31;55581;46.718;7.690;2023-04-25T11:36:27;9.95;75.73
68609;SHT31;55581;46.718;7.690;2023-04-25T11:38:55;9.90;73.84
68609;SHT31;55581;46.718;7.690;2023-04-25T11:41:23;9.90;73.85
68609;SHT31;55581;46.718;7.690;2023-04-25T11:43:50;10.09;75.81
68609;SHT31;55581;46.718;7.690;2023-04-25T11:46:17;10.02;77.55
68609;SHT31;55581;46.718;7.690;2023-04-25T11:48:44;10.15;75.19
68609;SHT31;55581;46.718;7.690;2023-04-25T11:51:10;10.03;77.01
68609;SHT31;55581;46.718;7.690;2023-04-25T11:53:35;9.95;77.31
68609;SHT31;55581;46.718;7.690;2023-04-25T11:56:09;9.63;75.30
68609;SHT31;55581;46.718;7.690;2023-04-25T11:58:54;9.51;76.19
68609;SHT31;55581;46.718;7.690;2023-04-25T12:01:30;9.65;77.60
68609;SHT31;55581;46.718;7.690;2023-04-25T12:03:56;9.80;75.31
68609;SHT31;55581;46.718;7.690;2023-04-25T12:06:26;9.43;76.14
68609;SHT31;55581;46.718;7.690;2023-04-25T12:09:06;9.23;78.14
68609;SHT31;55581;46.718;7.690;2023-04-25T12:11:40;9.14;76.88
68609;SHT31;55581;46.718;7.690;2023-04-25T12:14:06;9.05;78.58
68609;SHT31;55581;46.718;7.690;2023-04-25T12:16:41;9.01;81.15
68609;SHT31;55581;46.718;7.690;2023-04-25T12:19:07;8.87;79.49
68609;SHT31;55581;46.718;7.690;2023-04-25T12:21:33;8.85;79.48
68609;SHT31;55581;46.718;7.690;2023-04-25T12:24:18;8.82;78.73
68609;SHT31;55581;46.718;7.690;2023-04-25T12:27:07;8.89;76.88
68609;SHT31;55581;46.718;7.690;2023-04-25T12:29:34;8.88;76.88
68609;SHT31;55581;46.718;7.690;2023-04-25T12:31:59;9.09;78.48
68609;SHT31;55581;46.718;7.690;2023-04-25T12:34:27;9.40;77.73
68609;SHT31;55581;46.718;7.690;2023-04-25T12:36:53;9.40;80.39
68609;SHT31;55581;46.718;7.690;2023-04-25T12:39:20;9.25;80.20
68609;SHT31;55581;46.718;7.690;2023-04-25T12:41:47;9.15;79.40
68609;SHT31;55581;46.718;7.690;2023-04-25T12:44:13;9.12;80.85
68609;SHT31;55581;46.718;7.690;2023-04-25T12:46:39;8.92;81.80
68609;SHT31;55581;46.718;7.690;2023-04-25T12:49:05;8.88;79.42
68609;SHT31;55581;46.718;7.690;2023-04-25T12:51:32;8.99;82.42
68609;SHT31;55581;46.718;7.690;2023-04-25T12:54:01;9.07;80.43
68609;SHT31;55581;46.718;7.690;2023-04-25T12:56:30;9.20;77.91
68609;SHT31;55581;46.718;7.690;2023-04-25T12:58:56;9.27;78.05
68609;SHT31;55581;46.718;7.690;2023-04-25T13:01:22;9.36;81.60
68609;SHT31;55581;46.718;7.690;2023-04-25T13:03:48;9.42;80.96
68609;SHT31;55581;46.718;7.690;2023-04-25T13:06:14;9.46;79.66
68609;SHT31;55581;46.718;7.690;2023-04-25T13:08:42;9.48;79.15
68609;SHT31;55581;46.718;7.690;2023-04-25T13:11:08;9.71;79.68
68609;SHT31;55581;46.718;7.690;2023-04-25T13:13:34;10.13;74.77
68609;SHT31;55581;46.718;7.690;2023-04-25T13:16:04;10.09;71.04
68609;SHT31;55581;46.718;7.690;2023-04-25T13:18:30;10.15;75.38
68609;SHT31;55581;46.718;7.690;2023-04-25T13:20:56;10.35;73.01
68609;SHT31;55581;46.718;7.690;2023-04-25T13:23:22;10.60;73.35
68609;SHT31;55581;46.718;7.690;2023-04-25T13:25:47;10.64;76.69
68609;SHT31;55581;46.718;7.690;2023-04-25T13:28:13;10.91;77.75
68609;SHT31;55581;46.718;7.690;2023-04-25T13:30:42;10.91;78.92
68609;SHT31;55581;46.718;7.690;2023-04-25T13:33:08;10.91;79.62
68609;SHT31;55581;46.718;7.690;2023-04-25T13:35:35;10.90;77.33
68609;SHT31;55581;46.718;7.690;2023-04-25T13:38:01;10.95;76.77
68609;SHT31;55581;46.718;7.690;2023-04-25T13:40:27;10.95;76.25
68609;SHT31;55581;46.718;7.690;2023-04-25T13:42:52;10.95;76.18
68609;SHT31;55581;46.718;7.690;2023-04-25T13:45:19;11.01;76.01
68609;SHT31;55581;46.718;7.690;2023-04-25T13:47:44;11.33;73.14
68609;SHT31;55581;46.718;7.690;2023-04-25T13:50:10;11.38;71.13
68609;SHT31;55581;46.718;7.690;2023-04-25T13:52:35;11.67;75.83
68609;SHT31;55581;46.718;7.690;2023-04-25T13:55:01;11.53;73.13
68609;SHT31;55581;46.718;7.690;2023-04-25T13:57:30;11.66;70.56
68609;SHT31;55581;46.718;7.690;2023-04-25T13:59:55;11.63;66.31
68609;SHT31;55581;46.718;7.690;2023-04-25T14:02:21;11.60;69.82
68609;SHT31;55581;46.718;7.690;2023-04-25T14:04:48;11.52;67.35
68609;SHT31;55581;46.718;7.690;2023-04-25T14:07:14;11.53;66.98
68609;SHT31;55581;46.718;7.690;2023-04-25T14:09:41;11.55;65.71
68609;SHT31;55581;46.718;7.690;2023-04-25T14:12:07;11.55;63.66
68609;SHT31;55581;46.718;7.690;2023-04-25T14:14:34;11.43;67.07
68609;SHT31;55581;46.718;7.690;2023-04-25T14:17:03;11.44;65.30
68609;SHT31;55581;46.718;7.690;2023-04-25T14:19:28;11.46;65.54
68609;SHT31;55581;46.718;7.690;2023-04-25T14:21:56;11.55;67.22
68609;SHT31;55581;46.718;7.690;2023-04-25T14:24:24;11.59;68.06
68609;SHT31;55581;46.718;7.690;2023-04-25T14:26:50;11.85;64.07
68609;SHT31;55581;46.718;7.690;2023-04-25T14:29:15;11.95;63.11
68609;SHT31;55581;46.718;7.690;2023-04-25T14:31:41;11.88;63.05
68609;SHT31;55581;46.718;7.690;2023-04-25T14:34:07;11.83;63.85
68609;SHT31;55581;46.718;7.690;2023-04-25T14:36:33;11.88;64.75
68609;SHT31;55581;46.718;7.690;2023-04-25T14:38:59;11.87;63.95
68609;SHT31;55581;46.718;7.690;2023-04-25T14:41:25;11.62;64.91
68609;SHT31;55581;46.718;7.690;2023-04-25T14:43:51;11.50;65.37
68609;SHT31;55581;46.718;7.690;2023-04-25T14:46:16;11.36;66.24
68609;SHT31;55581;46.718;7.690;2023-04-25T14:48:46;11.16;67.92
68609;SHT31;55581;46.718;7.690;2023-04-25T14:51:12;11.30;65.93
68609;SHT31;55581;46.718;7.690;2023-04-25T14:53:37;11.32;66.20
68609;SHT31;55581;46.718;7.690;2023-04-25T14:56:03;11.47;66.75
68609;SHT31;55581;46.718;7.690;2023-04-25T14:58:31;11.71;64.48
68609;SHT31;55581;46.718;7.690;2023-04-25T15:00:56;11.70;65.46
68609;SHT31;55581;46.718;7.690;2023-04-25T15:03:21;11.73;64.48
68609;SHT31;55581;46.718;7.690;2023-04-25T15:05:48;11.90;64.53
68609;SHT31;55581;46.718;7.690;2023-04-25T15:08:13;11.97;65.02
68609;SHT31;55581;46.718;7.690;2023-04-25T15:10:41;11.77;66.17
68609;SHT31;55581;46.718;7.690;2023-04-25T15:13:08;11.80;65.01
68609;SHT31;55581;46.718;7.690;2023-04-25T15:15:35;11.83;65.06
68609;SHT31;55581;46.718;7.690;2023-04-25T15:18:00;11.63;65.38
68609;SHT31;55581;46.718;7.690;2023-04-25T15:20:26;11.49;67.75
68609;SHT31;55581;46.718;7.690;2023-04-25T15:22:52;11.52;66.64
68609;SHT31;55581;46.718;7.690;2023-04-25T15:25:18;11.50;62.35
68609;SHT31;55581;46.718;7.690;2023-04-25T15:27:44;11.11;64.33
68609;SHT31;55581;46.718;7.690;2023-04-25T15:30:11;11.18;64.95
68609;SHT31;55581;46.718;7.690;2023-04-25T15:32:38;11.32;67.39
68609;SHT31;55581;46.718;7.690;2023-04-25T15:35:05;11.47;69.00
68609;SHT31;55581;46.718;7.690;2023-04-25T15:37:37;11.57;70.94
68609;SHT31;55581;46.718;7.690;2023-04-25T15:40:15;11.53;66.43
68609;SHT31;55581;46.718;7.690;2023-04-25T15:42:49;11.47;66.78
68609;SHT31;55581;46.718;7.690;2023-04-25T15:45:24;11.00;66.67
68609;SHT31;55581;46.718;7.690;2023-04-25T15:47:57;10.90;68.94
68609;SHT31;55581;46.718;7.690;2023-04-25T15:50:25;10.68;69.81
68609;SHT31;55581;46.718;7.690;2023-04-25T15:52:51;10.46;71.90